Time;durP1;ratioP1;P1;durP2;ratioP2;P2;SDS_P1;SDS_P2;PMS_P1;PMS_P2;Temp;Humidity;BMP_temperature;BMP_pressure;BME280_temperature;BME280_humidity;BME280_pressure;Samples;Min_cycle;Max_cycle;Signal;HPM_P1;HPM_P2
2023/03/01 00:00:27;;;;;;;18.33;15.07;;;4.90;74.60;;;;;;6273285;28;20474;-64
2023/03/01 00:03:30;;;;;;;19.47;16.40;;;4.90;74.70;;;;;;6280008;28;20461;-64
2023/03/01 00:06:33;;;;;;;18.47;14.70;;;4.90;74.90;;;;;;6278544;28;20433;-64
2023/03/01 00:09:37;;;;;;;21.17;16.90;;;4.80;75.00;;;;;;6277647;28;20462;-63
2023/03/01 00:12:42;;;;;;;19.00;14.20;;;4.80;75.60;;;;;;6278777;28;20470;-63
2023/03/01 00:15:45;;;;;;;24.23;16.20;;;4.80;75.80;;;;;;6278003;28;20961;-63
2023/03/01 00:18:49;;;;;;;21.17;16.33;;;4.80;75.90;;;;;;6278131;28;20478;-62
2023/03/01 00:21:52;;;;;;;19.10;15.10;;;4.80;76.20;;;;;;6278792;28;20474;-63
2023/03/01 00:24:55;;;;;;;18.27;14.10;;;4.80;76.30;;;;;;6278306;28;20484;-63
2023/03/01 00:28:00;;;;;;;18.17;14.23;;;4.80;76.50;;;;;;6279637;28;20470;-63
2023/03/01 00:31:07;;;;;;;18.03;14.33;;;4.80;76.40;;;;;;6275871;28;20485;-63
2023/03/01 00:34:11;;;;;;;18.63;14.97;;;4.80;76.50;;;;;;6277545;28;20977;-64
2023/03/01 00:37:14;;;;;;;21.10;16.13;;;4.80;76.40;;;;;;6277200;28;20949;-64
2023/03/01 00:40:17;;;;;;;19.23;15.07;;;4.80;76.40;;;;;;6277408;28;20470;-64
2023/03/01 00:43:22;;;;;;;19.60;14.53;;;4.80;77.10;;;;;;6276947;28;20478;-63
2023/03/01 00:46:27;;;;;;;19.43;14.83;;;4.70;77.60;;;;;;6279086;28;20827;-64
2023/03/01 00:49:31;;;;;;;22.30;15.27;;;4.80;77.60;;;;;;6290227;28;20450;-63
2023/03/01 00:52:34;;;;;;;16.53;14.53;;;4.80;77.30;;;;;;6295906;28;20471;-62
2023/03/01 00:55:37;;;;;;;21.87;16.13;;;4.90;77.40;;;;;;6279722;28;20466;-63
2023/03/01 00:58:42;;;;;;;21.00;15.87;;;4.90;77.10;;;;;;6268931;28;20466;-67
2023/03/01 01:01:45;;;;;;;19.13;15.10;;;4.80;76.90;;;;;;6279362;28;20496;-66
2023/03/01 01:04:49;;;;;;;18.33;15.20;;;4.90;77.10;;;;;;6276387;28;20560;-64
2023/03/01 01:07:52;;;;;;;19.50;15.10;;;4.90;77.30;;;;;;6276620;28;20485;-66
2023/03/01 01:10:55;;;;;;;18.07;15.60;;;4.90;77.40;;;;;;6275373;28;20488;-66
2023/03/01 01:14:00;;;;;;;19.37;15.10;;;4.90;77.40;;;;;;6275928;28;20477;-64
2023/03/01 01:17:04;;;;;;;18.43;14.80;;;4.90;77.30;;;;;;6274648;28;20474;-64
2023/03/01 01:20:08;;;;;;;17.73;14.33;;;4.90;77.40;;;;;;6277224;28;20494;-64
2023/03/01 01:23:11;;;;;;;21.53;14.67;;;4.80;77.40;;;;;;6276933;28;20540;-67
2023/03/01 01:26:17;;;;;;;22.50;15.50;;;4.80;77.40;;;;;;6278374;28;20512;-68
2023/03/01 01:29:21;;;;;;;19.13;14.40;;;4.80;77.70;;;;;;6276915;28;20926;-66
2023/03/01 01:32:25;;;;;;;19.80;15.70;;;4.80;77.50;;;;;;6276639;28;20471;-64
2023/03/01 01:35:29;;;;;;;23.30;15.43;;;4.80;77.70;;;;;;6277199;28;20961;-63
2023/03/01 01:38:33;;;;;;;18.83;14.50;;;4.90;77.80;;;;;;6277645;28;21009;-64
2023/03/01 01:41:36;;;;;;;16.30;14.60;;;4.90;77.40;;;;;;6277816;28;20481;-63
2023/03/01 01:44:41;;;;;;;17.30;14.13;;;4.90;77.40;;;;;;6277754;28;20470;-66
2023/03/01 01:47:48;;;;;;;18.57;14.40;;;4.90;77.40;;;;;;6276139;28;20492;-65
2023/03/01 01:50:56;;;;;;;18.20;13.60;;;4.90;77.50;;;;;;6276180;28;20477;-65
2023/03/01 01:54:02;;;;;;;17.63;14.23;;;4.90;78.50;;;;;;6275821;28;20474;-66
2023/03/01 01:57:09;;;;;;;19.13;14.60;;;5.00;77.70;;;;;;6275909;28;20601;-66
2023/03/01 02:00:17;;;;;;;18.70;13.27;;;4.90;77.40;;;;;;6276083;28;20478;-66
2023/03/01 02:03:28;;;;;;;18.50;13.80;;;4.90;77.50;;;;;;6293664;28;20473;-66
2023/03/01 02:06:35;;;;;;;20.90;15.80;;;4.90;78.00;;;;;;6301505;28;20929;-66
2023/03/01 02:09:39;;;;;;;22.60;15.60;;;4.90;78.00;;;;;;6301011;28;20453;-65
2023/03/01 02:12:43;;;;;;;20.70;16.13;;;4.80;77.90;;;;;;6301584;28;20472;-68
2023/03/01 02:15:47;;;;;;;17.63;14.00;;;4.80;78.40;;;;;;6302559;28;20468;-64
2023/03/01 02:18:51;;;;;;;20.13;14.57;;;4.80;78.80;;;;;;6301244;28;20488;-68
2023/03/01 02:22:01;;;;;;;18.60;14.40;;;4.80;79.20;;;;;;6300685;28;20811;-68
2023/03/01 02:25:17;;;;;;;19.20;14.57;;;4.80;79.20;;;;;;6301080;28;20744;-68
2023/03/01 02:28:34;;;;;;;19.37;14.23;;;4.80;79.40;;;;;;6301179;28;20650;-68
2023/03/01 02:31:43;;;;;;;18.07;14.40;;;4.90;79.50;;;;;;6301995;28;20477;-68
2023/03/01 02:34:47;;;;;;;16.30;14.10;;;4.90;79.40;;;;;;6299761;28;20510;-66
2023/03/01 02:37:51;;;;;;;16.10;13.77;;;4.90;79.20;;;;;;6299470;28;20521;-64
2023/03/01 02:40:56;;;;;;;19.37;14.47;;;4.80;79.10;;;;;;6300619;28;20476;-63
2023/03/01 02:44:01;;;;;;;18.07;14.93;;;4.80;79.10;;;;;;6301342;28;20484;-65
2023/03/01 02:47:06;;;;;;;21.40;15.20;;;4.90;80.10;;;;;;6299597;28;20480;-66
2023/03/01 02:50:26;;;;;;;17.50;14.47;;;4.90;79.20;;;;;;6289837;28;20466;-66
2023/03/01 02:53:35;;;;;;;16.53;13.60;;;4.90;79.30;;;;;;6274166;28;20477;-66
2023/03/01 02:56:38;;;;;;;19.37;14.43;;;4.90;79.40;;;;;;6249623;28;20542;-65
2023/03/01 02:59:44;;;;;;;22.03;17.07;;;4.90;79.50;;;;;;6248963;28;20470;-65
2023/03/01 03:02:48;;;;;;;19.10;14.37;;;4.90;79.70;;;;;;6280068;28;20484;-67
2023/03/01 03:05:52;;;;;;;21.73;15.53;;;4.90;79.80;;;;;;6299116;28;20485;-67
2023/03/01 03:08:55;;;;;;;16.80;14.17;;;4.90;80.00;;;;;;6299045;28;20468;-68
2023/03/01 03:11:58;;;;;;;18.23;13.07;;;4.90;80.20;;;;;;6300372;28;20465;-67
2023/03/01 03:15:08;;;;;;;16.70;13.63;;;4.90;79.70;;;;;;6300956;28;20469;-62
2023/03/01 03:18:13;;;;;;;17.80;13.60;;;4.90;79.60;;;;;;6299302;28;20477;-68
2023/03/01 03:21:17;;;;;;;20.53;15.10;;;5.00;79.00;;;;;;6299092;28;20975;-66
2023/03/01 03:24:20;;;;;;;18.97;13.67;;;4.90;78.80;;;;;;6300362;28;20469;-65
2023/03/01 03:27:24;;;;;;;19.90;14.13;;;4.90;78.90;;;;;;6301988;28;20457;-65
2023/03/01 03:30:30;;;;;;;18.00;14.10;;;4.90;78.60;;;;;;6298926;28;20460;-63
2023/03/01 03:33:34;;;;;;;16.83;13.80;;;5.00;78.30;;;;;;6298975;28;20437;-63
2023/03/01 03:36:37;;;;;;;18.60;13.97;;;4.90;78.30;;;;;;6303820;28;20449;-66
2023/03/01 03:39:40;;;;;;;16.10;12.87;;;5.00;78.50;;;;;;6303319;28;21469;-68
2023/03/01 03:42:43;;;;;;;18.67;12.17;;;5.00;78.40;;;;;;6303777;28;20473;-66
2023/03/01 03:45:49;;;;;;;18.97;14.10;;;5.00;78.30;;;;;;6303742;28;20469;-67
2023/03/01 03:48:52;;;;;;;17.97;14.03;;;5.00;78.10;;;;;;6303427;28;20530;-65
2023/03/01 03:51:56;;;;;;;15.00;12.70;;;5.00;78.00;;;;;;6279545;28;20482;-67
2023/03/01 03:55:00;;;;;;;15.50;12.27;;;5.10;77.90;;;;;;6280731;28;20470;-68
2023/03/01 03:58:06;;;;;;;14.77;12.33;;;5.10;77.70;;;;;;6279984;28;20474;-68
2023/03/01 04:01:11;;;;;;;16.43;13.67;;;5.10;77.60;;;;;;6281582;28;20478;-67
2023/03/01 04:04:17;;;;;;;17.53;13.53;;;5.00;77.60;;;;;;6303062;28;20490;-66
2023/03/01 04:07:20;;;;;;;16.53;13.33;;;5.10;77.50;;;;;;6303202;28;20473;-66
2023/03/01 04:10:23;;;;;;;17.27;12.60;;;5.10;77.30;;;;;;6293547;28;20941;-64
2023/03/01 04:13:27;;;;;;;18.63;13.80;;;5.10;76.40;;;;;;6302526;28;20472;-64
2023/03/01 04:16:32;;;;;;;19.13;13.67;;;5.10;76.30;;;;;;6302427;28;20473;-64
2023/03/01 04:19:36;;;;;;;16.77;13.80;;;5.10;76.50;;;;;;6302243;28;20493;-66
2023/03/01 04:22:40;;;;;;;18.00;13.27;;;5.10;77.50;;;;;;6301942;28;20468;-64
2023/03/01 04:25:46;;;;;;;20.07;13.90;;;5.10;77.70;;;;;;6302824;28;20481;-68
2023/03/01 04:28:50;;;;;;;16.63;14.30;;;5.10;78.00;;;;;;6302086;28;20488;-66
2023/03/01 04:31:55;;;;;;;19.33;14.60;;;5.10;78.30;;;;;;6302125;28;20457;-66
2023/03/01 04:34:58;;;;;;;18.20;13.33;;;5.10;78.50;;;;;;6302201;28;20515;-66
2023/03/01 04:38:01;;;;;;;23.17;15.27;;;5.10;78.60;;;;;;6302368;28;20480;-67
2023/03/01 04:41:05;;;;;;;22.67;16.13;;;5.10;78.80;;;;;;6301551;28;20909;-66
2023/03/01 04:44:09;;;;;;;18.77;14.83;;;5.10;78.90;;;;;;6301289;28;20964;-66
2023/03/01 04:47:14;;;;;;;22.07;14.00;;;5.20;78.80;;;;;;6301037;28;20518;-66
2023/03/01 04:50:20;;;;;;;17.30;12.87;;;5.20;79.10;;;;;;6290717;28;20477;-64
2023/03/01 04:53:23;;;;;;;17.83;13.83;;;5.20;79.40;;;;;;6279009;28;21002;-68
2023/03/01 04:56:26;;;;;;;15.37;13.77;;;5.10;79.50;;;;;;6278729;28;20793;-66
2023/03/01 04:59:29;;;;;;;21.40;15.10;;;5.10;79.70;;;;;;6276609;28;20954;-66
2023/03/01 05:02:34;;;;;;;18.37;14.50;;;5.20;79.90;;;;;;6289611;28;20488;-63
2023/03/01 05:05:39;;;;;;;19.80;12.83;;;5.10;79.80;;;;;;6301483;28;20474;-62
2023/03/01 05:08:42;;;;;;;21.17;15.00;;;5.10;79.90;;;;;;6300991;28;20473;-63
2023/03/01 05:11:46;;;;;;;18.30;14.30;;;5.20;79.90;;;;;;6302096;28;20951;-62
2023/03/01 05:14:51;;;;;;;23.73;15.10;;;5.10;79.80;;;;;;6294877;28;20487;-63
2023/03/01 05:17:58;;;;;;;18.90;14.77;;;5.20;79.90;;;;;;6300964;28;20481;-67
2023/03/01 05:21:05;;;;;;;17.23;14.87;;;5.10;79.80;;;;;;6300820;28;20953;-66
2023/03/01 05:24:11;;;;;;;21.70;15.57;;;5.10;79.70;;;;;;6301027;28;20486;-64
2023/03/01 05:27:14;;;;;;;17.50;13.73;;;5.10;79.60;;;;;;6300582;28;20507;-65
2023/03/01 05:30:18;;;;;;;19.10;14.63;;;5.10;79.70;;;;;;6300706;28;20469;-65
2023/03/01 05:33:23;;;;;;;19.03;17.07;;;5.10;79.90;;;;;;6300526;28;20453;-65
2023/03/01 05:36:26;;;;;;;17.87;14.40;;;5.10;79.90;;;;;;6301525;28;20437;-65
2023/03/01 05:39:31;;;;;;;19.20;14.47;;;5.20;80.10;;;;;;6300903;28;20797;-65
2023/03/01 05:42:34;;;;;;;17.43;14.43;;;5.20;80.00;;;;;;6300370;28;20504;-66
2023/03/01 05:45:38;;;;;;;19.37;13.90;;;5.20;79.80;;;;;;6301063;28;20446;-63
2023/03/01 05:48:43;;;;;;;18.77;14.10;;;5.20;79.80;;;;;;6300386;28;20534;-64
2023/03/01 05:51:50;;;;;;;17.13;13.03;;;5.20;79.90;;;;;;6277345;28;20458;-63
2023/03/01 05:54:53;;;;;;;19.57;15.80;;;5.20;79.80;;;;;;6275665;28;20533;-66
2023/03/01 05:57:58;;;;;;;23.10;16.10;;;5.10;79.70;;;;;;6274538;28;20474;-66
2023/03/01 06:01:02;;;;;;;23.23;14.50;;;5.10;79.70;;;;;;6276305;28;20470;-67
2023/03/01 06:04:06;;;;;;;22.50;14.07;;;5.10;79.80;;;;;;6300083;28;21014;-66
2023/03/01 06:07:09;;;;;;;23.67;12.67;;;5.10;79.90;;;;;;6299583;28;20792;-65
2023/03/01 06:10:14;;;;;;;19.93;15.10;;;5.10;80.00;;;;;;6300112;28;20465;-65
2023/03/01 06:13:17;;;;;;;33.43;21.63;;;5.10;80.00;;;;;;6299903;28;20469;-66
2023/03/01 06:16:20;;;;;;;33.30;20.67;;;5.20;79.90;;;;;;6295339;28;20484;-66
2023/03/01 06:19:25;;;;;;;19.83;15.27;;;5.30;80.10;;;;;;6299844;28;20798;-66
2023/03/01 06:22:28;;;;;;;20.03;15.20;;;5.40;80.20;;;;;;6299810;28;20494;-66
2023/03/01 06:25:31;;;;;;;16.10;14.27;;;5.40;79.80;;;;;;6300334;28;20461;-66
2023/03/01 06:28:35;;;;;;;19.67;15.47;;;5.40;79.60;;;;;;6299421;28;20473;-66
2023/03/01 06:31:38;;;;;;;20.93;17.53;;;5.40;79.60;;;;;;6300002;28;20465;-63
2023/03/01 06:34:43;;;;;;;20.20;17.27;;;5.40;79.40;;;;;;6299485;28;20469;-67
2023/03/01 06:37:47;;;;;;;29.70;18.30;;;5.50;79.50;;;;;;6300119;28;20481;-65
2023/03/01 06:40:53;;;;;;;25.10;16.10;;;5.50;79.40;;;;;;6300928;28;20465;-66
2023/03/01 06:43:56;;;;;;;21.60;15.60;;;5.50;79.50;;;;;;6299869;28;20473;-65
2023/03/01 06:47:00;;;;;;;18.80;15.07;;;5.50;79.50;;;;;;6299224;28;20473;-63
2023/03/01 06:50:05;;;;;;;24.47;14.23;;;5.50;79.40;;;;;;6290746;28;20466;-66
2023/03/01 06:53:08;;;;;;;18.70;15.10;;;5.60;79.50;;;;;;6274702;28;20573;-68
2023/03/01 06:56:11;;;;;;;18.90;15.27;;;5.50;79.30;;;;;;6274680;28;20470;-66
2023/03/01 06:59:15;;;;;;;20.10;15.60;;;5.60;79.50;;;;;;6274082;28;20466;-67
2023/03/01 07:02:18;;;;;;;19.67;14.83;;;5.60;79.60;;;;;;6286056;28;20493;-66
2023/03/01 07:05:22;;;;;;;19.10;16.73;;;5.60;80.30;;;;;;6303608;28;20480;-66
2023/03/01 07:08:26;;;;;;;23.93;18.70;;;5.60;79.60;;;;;;6301065;28;20488;-66
2023/03/01 07:11:29;;;;;;;21.20;17.27;;;5.60;79.40;;;;;;6291893;28;20473;-67
2023/03/01 07:14:32;;;;;;;23.10;16.50;;;5.60;79.00;;;;;;6279232;28;20470;-65
2023/03/01 07:17:35;;;;;;;20.00;16.87;;;5.60;79.00;;;;;;6279092;28;20962;-66
2023/03/01 07:20:40;;;;;;;22.27;16.00;;;5.60;79.10;;;;;;6279338;28;20470;-66
2023/03/01 07:23:43;;;;;;;20.67;15.13;;;5.70;78.60;;;;;;6278704;28;20496;-65
2023/03/01 07:26:50;;;;;;;18.50;12.30;;;5.60;78.20;;;;;;6278456;28;20797;-63
2023/03/01 07:29:53;;;;;;;18.03;12.40;;;5.60;75.90;;;;;;6277871;28;20589;-63
2023/03/01 07:32:57;;;;;;;15.30;12.50;;;5.60;74.10;;;;;;6276943;28;20469;-62
2023/03/01 07:36:04;;;;;;;19.27;13.67;;;5.60;73.40;;;;;;6277330;28;20486;-65
2023/03/01 07:39:07;;;;;;;16.60;13.57;;;5.60;73.50;;;;;;6276908;28;20485;-68
2023/03/01 07:42:10;;;;;;;17.67;13.73;;;5.70;72.50;;;;;;6278549;28;20485;-68
2023/03/01 07:45:14;;;;;;;18.90;13.97;;;5.70;71.00;;;;;;6278464;28;20481;-66
2023/03/01 07:48:17;;;;;;;15.73;14.00;;;5.80;70.70;;;;;;6278411;28;20789;-62
2023/03/01 07:51:21;;;;;;;15.40;13.87;;;5.80;69.50;;;;;;6277648;28;20481;-66
2023/03/01 07:54:26;;;;;;;16.60;13.20;;;5.70;70.80;;;;;;6279678;28;20438;-66
2023/03/01 07:57:29;;;;;;;15.20;13.10;;;5.70;71.30;;;;;;6278913;28;20461;-62
2023/03/01 08:00:32;;;;;;;12.47;11.20;;;5.70;71.30;;;;;;6278645;28;20430;-65
2023/03/01 08:03:36;;;;;;;16.37;13.60;;;5.70;72.70;;;;;;6299329;28;20790;-65
2023/03/01 08:06:40;;;;;;;16.97;13.70;;;5.70;73.50;;;;;;6304354;28;20757;-66
2023/03/01 08:09:44;;;;;;;18.37;14.93;;;5.80;73.70;;;;;;6307122;28;20469;-66
2023/03/01 08:12:47;;;;;;;18.80;14.40;;;5.90;73.10;;;;;;6303755;28;20465;-67
2023/03/01 08:15:50;;;;;;;17.57;13.83;;;5.90;71.50;;;;;;6303485;28;20948;-67
2023/03/01 08:18:55;;;;;;;16.80;12.83;;;6.00;71.60;;;;;;6302788;28;20837;-67
2023/03/01 08:22:00;;;;;;;19.20;14.47;;;6.20;71.80;;;;;;6301907;28;20933;-67
2023/03/01 08:25:03;;;;;;;12.47;11.13;;;6.20;71.30;;;;;;6293319;28;20479;-65
2023/03/01 08:28:07;;;;;;;18.57;13.70;;;6.30;71.50;;;;;;6298331;28;20476;-66
2023/03/01 08:31:18;;;;;;;17.27;14.03;;;6.20;69.50;;;;;;6263443;28;20658;-63
2023/03/01 08:34:21;;;;;;;18.77;14.60;;;6.10;70.60;;;;;;6269332;28;20518;-63
2023/03/01 08:37:26;;;;;;;15.53;13.13;;;6.10;70.30;;;;;;6275548;28;20480;-63
2023/03/01 08:40:29;;;;;;;17.20;14.00;;;6.20;70.90;;;;;;6275256;28;20492;-62
2023/03/01 08:43:32;;;;;;;16.67;13.20;;;6.40;70.20;;;;;;6275565;28;20485;-63
2023/03/01 08:46:37;;;;;;;15.17;12.40;;;6.40;70.10;;;;;;6270393;28;20493;-63
2023/03/01 08:49:41;;;;;;;16.33;14.23;;;6.40;70.40;;;;;;6276788;28;20581;-63
2023/03/01 08:52:45;;;;;;;17.47;13.90;;;6.50;70.80;;;;;;6277174;28;20478;-64
2023/03/01 08:55:48;;;;;;;20.33;14.00;;;6.60;71.00;;;;;;6276449;28;20470;-64
2023/03/01 08:58:52;;;;;;;19.37;14.63;;;6.60;71.60;;;;;;6275976;28;20482;-63
2023/03/01 09:01:56;;;;;;;22.90;15.40;;;6.60;71.50;;;;;;6283946;28;20465;-66
2023/03/01 09:04:59;;;;;;;16.97;14.07;;;6.60;72.20;;;;;;6276846;28;20465;-64
2023/03/01 09:08:04;;;;;;;20.70;15.00;;;6.70;72.20;;;;;;6276479;28;20485;-64
2023/03/01 09:11:09;;;;;;;20.50;13.73;;;6.70;72.00;;;;;;6276488;28;20481;-64
2023/03/01 09:14:12;;;;;;;18.97;14.57;;;6.70;72.20;;;;;;6276366;28;20466;-64
2023/03/01 09:17:15;;;;;;;16.13;14.40;;;6.70;72.10;;;;;;6275876;28;20926;-64
2023/03/01 09:20:19;;;;;;;20.00;13.50;;;6.80;72.30;;;;;;6276056;28;20478;-62
2023/03/01 09:23:23;;;;;;;21.30;16.37;;;6.90;72.40;;;;;;6275869;28;20534;-63
2023/03/01 09:26:27;;;;;;;16.87;14.17;;;6.90;72.40;;;;;;6274293;28;20473;-63
2023/03/01 09:29:30;;;;;;;22.83;19.80;;;6.90;72.50;;;;;;6274485;28;20775;-63
2023/03/01 09:32:33;;;;;;;21.27;18.07;;;7.00;72.60;;;;;;6274654;28;20470;-64
2023/03/01 09:35:36;;;;;;;20.57;16.47;;;7.00;73.40;;;;;;6275831;28;20822;-63
2023/03/01 09:38:41;;;;;;;18.63;15.90;;;6.90;72.00;;;;;;6255973;28;20556;-64
2023/03/01 09:41:48;;;;;;;18.73;15.07;;;6.70;72.30;;;;;;6251730;28;20474;-64
2023/03/01 09:44:57;;;;;;;23.63;15.80;;;6.60;73.20;;;;;;6250467;28;20506;-63
2023/03/01 09:48:02;;;;;;;21.70;15.20;;;6.50;73.50;;;;;;6250356;28;20471;-65
2023/03/01 09:51:10;;;;;;;25.60;17.67;;;6.40;75.30;;;;;;6267828;28;20470;-65
2023/03/01 09:54:14;;;;;;;30.53;20.57;;;6.30;76.70;;;;;;6275219;28;20482;-64
2023/03/01 09:57:22;;;;;;;25.37;17.27;;;6.30;76.40;;;;;;6272424;28;20490;-62
2023/03/01 10:00:38;;;;;;;21.33;16.60;;;6.40;75.50;;;;;;6272921;28;20458;-62
2023/03/01 10:03:46;;;;;;;22.07;15.20;;;6.40;75.10;;;;;;6285570;28;20509;-64
2023/03/01 10:06:59;;;;;;;22.80;16.43;;;6.40;74.60;;;;;;6272969;28;20466;-63
2023/03/01 10:10:07;;;;;;;64.83;34.60;;;6.50;74.60;;;;;;6273841;28;20478;-63
2023/03/01 10:13:18;;;;;;;21.90;18.43;;;6.40;74.50;;;;;;6274111;28;20463;-62
2023/03/01 10:16:27;;;;;;;32.47;21.30;;;6.60;74.90;;;;;;6274265;28;20481;-64
2023/03/01 10:19:34;;;;;;;24.07;19.30;;;6.70;75.40;;;;;;6274892;28;20505;-64
2023/03/01 10:22:38;;;;;;;20.10;16.40;;;6.80;75.00;;;;;;6274971;28;20477;-67
2023/03/01 10:25:54;;;;;;;22.03;17.40;;;6.70;75.20;;;;;;6274054;28;20477;-63
2023/03/01 10:29:03;;;;;;;24.90;16.00;;;6.70;74.10;;;;;;6272565;28;20481;-62
2023/03/01 10:32:07;;;;;;;20.27;16.30;;;6.60;74.10;;;;;;6273303;28;20466;-62
2023/03/01 10:35:18;;;;;;;22.47;17.37;;;6.70;74.60;;;;;;6263983;28;20956;-62
2023/03/01 10:38:22;;;;;;;23.00;16.63;;;6.90;74.60;;;;;;6255712;28;20996;-64
2023/03/01 10:41:28;;;;;;;19.17;15.90;;;6.90;74.40;;;;;;6250104;28;20575;-64
2023/03/01 10:44:41;;;;;;;23.50;17.40;;;7.00;74.50;;;;;;6258071;28;20474;-63
2023/03/01 10:47:45;;;;;;;23.30;19.03;;;7.00;74.70;;;;;;6274287;28;20474;-64
2023/03/01 10:50:50;;;;;;;22.60;17.50;;;6.90;75.50;;;;;;6274420;28;20465;-64
2023/03/01 10:53:53;;;;;;;22.40;16.80;;;6.80;75.10;;;;;;6266091;28;20475;-64
2023/03/01 10:57:00;;;;;;;26.23;17.60;;;6.50;75.80;;;;;;6256206;28;20467;-64
2023/03/01 11:00:23;;;;;;;21.60;18.13;;;6.50;76.80;;;;;;6249091;28;20483;-64
2023/03/01 11:03:28;;;;;;;23.50;17.20;;;6.70;77.20;;;;;;6272092;28;20819;-64
2023/03/01 11:06:31;;;;;;;23.07;16.50;;;6.80;77.30;;;;;;6273799;28;20560;-64
2023/03/01 11:09:37;;;;;;;56.20;34.33;;;7.00;77.80;;;;;;6273577;28;21127;-64
2023/03/01 11:12:42;;;;;;;64.83;36.10;;;7.00;77.80;;;;;;6274602;28;20449;-64
2023/03/01 11:16:00;;;;;;;27.03;20.87;;;7.10;77.90;;;;;;6273462;28;20465;-64
2023/03/01 11:19:19;;;;;;;32.70;20.00;;;7.20;78.30;;;;;;6273717;28;20628;-64
2023/03/01 11:22:23;;;;;;;47.60;33.10;;;7.20;78.00;;;;;;6274049;28;20481;-64
2023/03/01 11:25:30;;;;;;;29.07;22.93;;;7.30;78.20;;;;;;6272857;28;20462;-64
2023/03/01 11:28:38;;;;;;;21.97;17.50;;;7.40;77.80;;;;;;6273976;28;20482;-65
2023/03/01 11:31:43;;;;;;;23.13;18.30;;;7.50;77.50;;;;;;6272647;28;20466;-65
2023/03/01 11:35:06;;;;;;;23.00;16.20;;;7.60;77.30;;;;;;6272722;28;20459;-65
2023/03/01 11:38:19;;;;;;;23.00;17.70;;;7.70;76.80;;;;;;6268275;28;20482;-64
2023/03/01 11:41:27;;;;;;;24.13;17.90;;;7.80;75.80;;;;;;6273069;28;20494;-64
2023/03/01 11:44:35;;;;;;;22.47;17.17;;;7.80;75.90;;;;;;6273342;28;20567;-64
2023/03/01 11:47:52;;;;;;;24.10;18.07;;;7.80;75.80;;;;;;6273290;28;20478;-65
2023/03/01 11:50:58;;;;;;;22.43;18.57;;;7.80;77.00;;;;;;6273555;28;20470;-64
2023/03/01 11:54:10;;;;;;;21.37;18.23;;;7.70;76.30;;;;;;6273470;28;20999;-64
2023/03/01 11:57:21;;;;;;;22.17;16.83;;;7.60;76.40;;;;;;6277425;28;20470;-64
2023/03/01 12:00:53;;;;;;;20.03;16.20;;;7.70;76.80;;;;;;6277812;28;20469;-64
2023/03/01 12:04:24;;;;;;;23.50;17.10;;;7.70;76.60;;;;;;6262994;28;20458;-64
2023/03/01 12:07:37;;;;;;;19.60;15.73;;;7.90;76.50;;;;;;6275569;28;20469;-64
2023/03/01 12:10:49;;;;;;;28.53;20.90;;;8.00;75.90;;;;;;6277342;28;20462;-63
2023/03/01 12:14:16;;;;;;;49.97;29.20;;;8.00;75.20;;;;;;6276983;28;20469;-64
2023/03/01 12:17:59;;;;;;;44.77;25.70;;;8.10;75.30;;;;;;6279599;28;20481;-63
2023/03/01 12:21:13;;;;;;;35.87;23.23;;;8.30;75.00;;;;;;6278894;28;20477;-64
2023/03/01 12:24:50;;;;;;;27.07;19.33;;;8.50;74.10;;;;;;6277663;28;20462;-63
2023/03/01 12:28:15;;;;;;;84.13;52.70;;;8.60;73.80;;;;;;6245110;28;20454;-63
2023/03/01 12:31:48;;;;;;;27.17;18.90;;;8.60;73.20;;;;;;6277057;28;20470;-63
2023/03/01 12:35:17;;;;;;;23.77;16.97;;;8.50;73.20;;;;;;6277269;28;20608;-63
2023/03/01 12:38:35;;;;;;;20.83;17.17;;;8.50;72.60;;;;;;6259748;28;20470;-63
2023/03/01 12:41:47;;;;;;;24.60;17.67;;;8.50;72.40;;;;;;6251740;28;20865;-64
2023/03/01 12:45:06;;;;;;;25.77;16.93;;;8.40;72.30;;;;;;6252615;28;20479;-64
2023/03/01 12:48:24;;;;;;;20.80;15.83;;;8.30;72.90;;;;;;6252358;28;20479;-64
2023/03/01 12:51:34;;;;;;;20.47;15.93;;;8.40;73.00;;;;;;6272049;28;20853;-64
2023/03/01 12:54:38;;;;;;;19.20;16.17;;;8.40;73.20;;;;;;6277107;28;20438;-64
2023/03/01 12:57:45;;;;;;;18.40;15.13;;;8.40;73.30;;;;;;6277309;28;20469;-63
2023/03/01 13:01:04;;;;;;;20.33;15.80;;;8.50;73.40;;;;;;6278390;28;20477;-64
2023/03/01 13:04:18;;;;;;;18.73;15.87;;;8.60;74.30;;;;;;6290205;28;20561;-64
2023/03/01 13:07:30;;;;;;;19.23;15.20;;;8.60;72.40;;;;;;6275851;28;20529;-63
2023/03/01 13:10:40;;;;;;;20.37;15.50;;;8.70;72.60;;;;;;6276908;28;20481;-65
2023/03/01 13:13:48;;;;;;;20.93;14.83;;;8.80;72.30;;;;;;6276177;28;21377;-65
2023/03/01 13:16:53;;;;;;;19.27;14.93;;;8.80;72.30;;;;;;6276102;28;20504;-64
2023/03/01 13:20:00;;;;;;;21.23;15.40;;;8.70;72.50;;;;;;6276324;28;20485;-64
2023/03/01 13:23:09;;;;;;;21.47;15.17;;;8.80;73.20;;;;;;6276385;28;20474;-65
2023/03/01 13:26:17;;;;;;;19.93;17.53;;;8.90;73.00;;;;;;6275828;28;20482;-64
2023/03/01 13:29:28;;;;;;;22.60;16.17;;;8.90;72.70;;;;;;6276253;28;20480;-65
2023/03/01 13:32:33;;;;;;;20.73;16.07;;;8.90;72.80;;;;;;6276267;28;20478;-64
2023/03/01 13:35:50;;;;;;;19.57;16.17;;;9.00;72.60;;;;;;6275927;28;20601;-65
2023/03/01 13:38:59;;;;;;;23.90;16.40;;;9.00;72.70;;;;;;6272815;28;20499;-64
2023/03/01 13:42:03;;;;;;;16.10;13.10;;;9.00;72.80;;;;;;6274730;28;20535;-64
2023/03/01 13:45:26;;;;;;;16.33;13.53;;;8.90;72.80;;;;;;6274917;28;20770;-64
2023/03/01 13:48:32;;;;;;;37.40;27.47;;;8.90;73.10;;;;;;6273190;28;20982;-63
2023/03/01 13:51:35;;;;;;;26.90;15.33;;;8.90;73.60;;;;;;6274505;28;20429;-63
2023/03/01 13:54:40;;;;;;;16.20;13.07;;;8.70;73.80;;;;;;6274228;28;20449;-63
2023/03/01 13:57:53;;;;;;;18.07;13.07;;;8.70;74.30;;;;;;6274153;28;20496;-63
2023/03/01 14:00:59;;;;;;;19.43;14.37;;;8.60;74.80;;;;;;6274983;28;20463;-64
2023/03/01 14:04:03;;;;;;;18.80;13.70;;;8.60;75.40;;;;;;6299614;28;20534;-64
2023/03/01 14:07:12;;;;;;;13.87;12.47;;;8.30;75.70;;;;;;6300878;28;20820;-63
2023/03/01 14:10:17;;;;;;;20.57;14.03;;;8.40;76.30;;;;;;6299587;28;20473;-62
2023/03/01 14:13:36;;;;;;;16.80;13.50;;;8.50;76.40;;;;;;6299838;28;20470;-63
2023/03/01 14:16:49;;;;;;;16.90;13.33;;;8.50;76.10;;;;;;6292341;28;20475;-62
2023/03/01 14:19:58;;;;;;;18.50;14.77;;;8.60;76.00;;;;;;6273023;28;20474;-63
2023/03/01 14:23:09;;;;;;;15.70;14.00;;;8.70;76.20;;;;;;6272263;28;20466;-63
2023/03/01 14:26:13;;;;;;;16.43;12.67;;;8.70;76.40;;;;;;6274729;28;20493;-64
2023/03/01 14:29:28;;;;;;;16.30;13.70;;;8.70;76.80;;;;;;6274272;28;20484;-62
2023/03/01 14:32:33;;;;;;;18.43;13.60;;;8.80;77.30;;;;;;6274836;28;20470;-62
2023/03/01 14:35:37;;;;;;;16.53;14.50;;;8.80;77.80;;;;;;6274060;28;20555;-64
2023/03/01 14:38:42;;;;;;;19.23;14.23;;;8.70;78.50;;;;;;6271608;28;20470;-63
2023/03/01 14:41:47;;;;;;;14.73;12.60;;;8.70;79.50;;;;;;6274598;28;20937;-60
2023/03/01 14:44:53;;;;;;;15.00;12.17;;;8.60;80.50;;;;;;6274515;28;20470;-66
2023/03/01 14:48:01;;;;;;;12.57;11.17;;;8.50;80.40;;;;;;6273592;28;20496;-65
2023/03/01 14:51:06;;;;;;;16.23;11.47;;;8.50;81.10;;;;;;6264844;28;20474;-63
2023/03/01 14:54:22;;;;;;;17.70;12.30;;;8.40;81.90;;;;;;6273873;28;20493;-64
2023/03/01 14:57:28;;;;;;;15.43;12.37;;;8.40;83.30;;;;;;6273897;28;20474;-64
2023/03/01 15:00:33;;;;;;;19.10;11.73;;;8.40;83.90;;;;;;6273497;28;20465;-60
2023/03/01 15:03:39;;;;;;;14.13;12.17;;;8.40;84.70;;;;;;6273573;28;20441;-63
2023/03/01 15:06:44;;;;;;;15.00;12.70;;;8.30;84.50;;;;;;6272700;28;20465;-66
2023/03/01 15:09:47;;;;;;;16.70;12.90;;;8.20;85.60;;;;;;6272319;28;20474;-62
2023/03/01 15:12:52;;;;;;;13.90;11.20;;;8.20;86.70;;;;;;6274119;28;20461;-61
2023/03/01 15:16:07;;;;;;;13.47;11.63;;;8.10;87.30;;;;;;6274360;28;20474;-61
2023/03/01 15:19:18;;;;;;;17.00;13.17;;;8.00;87.80;;;;;;6274427;28;20480;-63
2023/03/01 15:22:22;;;;;;;16.53;12.03;;;8.00;88.70;;;;;;6274489;28;20470;-63
2023/03/01 15:25:27;;;;;;;13.73;12.17;;;8.00;89.10;;;;;;6273319;28;20490;-62
2023/03/01 15:28:35;;;;;;;13.77;10.90;;;7.90;90.10;;;;;;6273659;28;20790;-62
2023/03/01 15:31:39;;;;;;;17.07;12.60;;;7.90;90.30;;;;;;6277243;28;20470;-62
2023/03/01 15:34:42;;;;;;;18.23;12.80;;;7.90;90.40;;;;;;6278712;28;20462;-62
2023/03/01 15:37:47;;;;;;;14.83;11.90;;;7.90;90.70;;;;;;6996841;22;20494;-63
2023/03/01 15:40:51;;;;;;;14.53;11.23;;;7.90;90.90;;;;;;6274543;28;20802;-64
2023/03/01 15:43:56;;;;;;;16.40;11.33;;;7.80;91.20;;;;;;6277960;28;20553;-63
2023/03/01 15:47:00;;;;;;;17.97;12.70;;;7.80;91.30;;;;;;6277071;28;20820;-62
2023/03/01 15:50:03;;;;;;;16.17;12.47;;;7.80;91.60;;;;;;6252178;28;20855;-61
2023/03/01 15:53:11;;;;;;;19.63;12.93;;;7.80;91.70;;;;;;6247298;28;20960;-62
2023/03/01 15:56:14;;;;;;;17.07;13.43;;;7.80;92.00;;;;;;6252860;28;20474;-60